sensor_id;sensor_type;location;lat;lon;timestamp;pressure;altitude;pressure_sealevel;temperature;humidity
60852;BME280;48553;50.766;2.900;2023-04-26T00:01:30;101307.28;;;8.47;67.91
60852;BME280;48553;50.766;2.900;2023-04-26T00:04:30;101309.84;;;8.43;68.02
60852;BME280;48553;50.766;2.900;2023-04-26T00:07:31;101317.25;;;8.43;68.23
60852;BME280;48553;50.766;2.900;2023-04-26T00:10:32;101309.59;;;8.40;68.02
60852;BME280;48553;50.766;2.900;2023-04-26T00:13:32;101307.72;;;8.40;68.09
60852;BME280;48553;50.766;2.900;2023-04-26T00:16:33;101306.69;;;8.36;67.94
60852;BME280;48553;50.766;2.900;2023-04-26T00:19:33;101304.56;;;8.33;68.07
60852;BME280;48553;50.766;2.900;2023-04-26T00:22:34;101300.53;;;8.30;68.00
60852;BME280;48553;50.766;2.900;2023-04-26T00:25:34;101308.72;;;8.30;67.93
60852;BME280;48553;50.766;2.900;2023-04-26T00:28:34;101308.03;;;8.25;68.04
60852;BME280;48553;50.766;2.900;2023-04-26T00:31:35;101308.34;;;8.23;68.02
60852;BME280;48553;50.766;2.900;2023-04-26T00:34:36;101300.75;;;8.20;67.91
60852;BME280;48553;50.766;2.900;2023-04-26T00:37:37;101299.13;;;8.19;68.10
60852;BME280;48553;50.766;2.900;2023-04-26T00:40:37;101299.75;;;8.16;68.25
60852;BME280;48553;50.766;2.900;2023-04-26T00:43:38;101303.91;;;8.13;68.11
60852;BME280;48553;50.766;2.900;2023-04-26T00:46:39;101294.09;;;8.12;67.90
60852;BME280;48553;50.766;2.900;2023-04-26T00:49:40;101293.06;;;8.08;68.12
60852;BME280;48553;50.766;2.900;2023-04-26T00:52:42;101286.31;;;8.06;67.95
60852;BME280;48553;50.766;2.900;2023-04-26T00:55:44;101282.78;;;8.05;68.09
60852;BME280;48553;50.766;2.900;2023-04-26T00:58:44;101288.06;;;8.02;68.05
60852;BME280;48553;50.766;2.900;2023-04-26T01:01:45;101280.97;;;8.01;68.26
60852;BME280;48553;50.766;2.900;2023-04-26T01:04:47;101287.03;;;7.98;68.13
60852;BME280;48553;50.766;2.900;2023-04-26T01:07:48;101293.59;;;7.97;67.97
60852;BME280;48553;50.766;2.900;2023-04-26T01:10:48;101287.63;;;7.94;68.19
60852;BME280;48553;50.766;2.900;2023-04-26T01:13:49;101288.75;;;7.93;67.94
60852;BME280;48553;50.766;2.900;2023-04-26T01:16:50;101302.19;;;7.90;68.07
60852;BME280;48553;50.766;2.900;2023-04-26T01:19:51;101301.69;;;7.88;68.32
60852;BME280;48553;50.766;2.900;2023-04-26T01:22:52;101293.31;;;7.84;68.03
60852;BME280;48553;50.766;2.900;2023-04-26T01:25:52;101288.94;;;7.83;68.08
60852;BME280;48553;50.766;2.900;2023-04-26T01:28:55;101287.63;;;7.81;68.13
60852;BME280;48553;50.766;2.900;2023-04-26T01:31:55;101274.63;;;7.78;68.02
60852;BME280;48553;50.766;2.900;2023-04-26T01:34:56;101269.44;;;7.76;68.37
60852;BME280;48553;50.766;2.900;2023-04-26T01:37:56;101259.97;;;7.73;68.23
60852;BME280;48553;50.766;2.900;2023-04-26T01:40:56;101262.19;;;7.71;68.53
60852;BME280;48553;50.766;2.900;2023-04-26T01:43:57;101271.16;;;7.72;68.24
60852;BME280;48553;50.766;2.900;2023-04-26T01:46:57;101255.13;;;7.70;68.45
60852;BME280;48553;50.766;2.900;2023-04-26T01:49:57;101258.44;;;7.67;68.48
60852;BME280;48553;50.766;2.900;2023-04-26T01:52:58;101254.72;;;7.63;68.47
60852;BME280;48553;50.766;2.900;2023-04-26T01:56:02;101252.59;;;7.60;68.64
60852;BME280;48553;50.766;2.900;2023-04-26T01:59:02;101251.16;;;7.63;68.23
60852;BME280;48553;50.766;2.900;2023-04-26T02:02:03;101261.09;;;7.59;68.25
60852;BME280;48553;50.766;2.900;2023-04-26T02:05:03;101252.06;;;7.58;68.48
60852;BME280;48553;50.766;2.900;2023-04-26T02:08:04;101260.06;;;7.55;68.43
60852;BME280;48553;50.766;2.900;2023-04-26T02:11:05;101254.41;;;7.51;68.37
60852;BME280;48553;50.766;2.900;2023-04-26T02:14:06;101260.47;;;7.48;68.65
60852;BME280;48553;50.766;2.900;2023-04-26T02:17:06;101249.56;;;7.48;68.60
60852;BME280;48553;50.766;2.900;2023-04-26T02:20:08;101260.75;;;7.46;68.44
60852;BME280;48553;50.766;2.900;2023-04-26T02:23:12;101245.53;;;7.45;68.63
60852;BME280;48553;50.766;2.900;2023-04-26T02:26:13;101252.97;;;7.40;68.71
60852;BME280;48553;50.766;2.900;2023-04-26T02:29:13;101245.13;;;7.38;68.59
60852;BME280;48553;50.766;2.900;2023-04-26T02:32:14;101247.00;;;7.38;68.64
60852;BME280;48553;50.766;2.900;2023-04-26T02:35:14;101240.25;;;7.35;68.67
60852;BME280;48553;50.766;2.900;2023-04-26T02:38:16;101240.56;;;7.34;68.69
60852;BME280;48553;50.766;2.900;2023-04-26T02:41:16;101236.03;;;7.29;68.69
60852;BME280;48553;50.766;2.900;2023-04-26T02:44:16;101230.34;;;7.25;68.79
60852;BME280;48553;50.766;2.900;2023-04-26T02:47:17;101237.72;;;7.25;68.64
60852;BME280;48553;50.766;2.900;2023-04-26T02:50:17;101239.13;;;7.22;69.04
60852;BME280;48553;50.766;2.900;2023-04-26T02:53:18;101236.69;;;7.21;69.11
60852;BME280;48553;50.766;2.900;2023-04-26T02:56:18;101227.72;;;7.20;68.74
60852;BME280;48553;50.766;2.900;2023-04-26T02:59:18;101222.56;;;7.19;68.65
60852;BME280;48553;50.766;2.900;2023-04-26T03:02:19;101215.00;;;7.16;69.03
60852;BME280;48553;50.766;2.900;2023-04-26T03:05:20;101220.44;;;7.16;68.79
60852;BME280;48553;50.766;2.900;2023-04-26T03:08:21;101213.69;;;7.13;69.23
60852;BME280;48553;50.766;2.900;2023-04-26T03:11:22;101215.59;;;7.13;69.06
60852;BME280;48553;50.766;2.900;2023-04-26T03:14:23;101220.00;;;7.08;69.03
60852;BME280;48553;50.766;2.900;2023-04-26T03:17:23;101215.91;;;7.11;69.32
60852;BME280;48553;50.766;2.900;2023-04-26T03:20:24;101225.47;;;7.08;68.99
60852;BME280;48553;50.766;2.900;2023-04-26T03:23:24;101214.56;;;7.08;69.27
60852;BME280;48553;50.766;2.900;2023-04-26T03:26:25;101223.84;;;7.07;69.10
60852;BME280;48553;50.766;2.900;2023-04-26T03:29:26;101214.66;;;7.03;69.07
60852;BME280;48553;50.766;2.900;2023-04-26T03:32:26;101215.78;;;7.02;69.24
60852;BME280;48553;50.766;2.900;2023-04-26T03:35:27;101218.50;;;7.02;69.27
60852;BME280;48553;50.766;2.900;2023-04-26T03:38:27;101212.03;;;6.98;69.59
60852;BME280;48553;50.766;2.900;2023-04-26T03:41:27;101220.50;;;6.97;69.66
60852;BME280;48553;50.766;2.900;2023-04-26T03:44:28;101210.72;;;6.96;69.67
60852;BME280;48553;50.766;2.900;2023-04-26T03:47:29;101214.03;;;6.93;69.55
60852;BME280;48553;50.766;2.900;2023-04-26T03:50:30;101215.66;;;6.94;69.74
60852;BME280;48553;50.766;2.900;2023-04-26T03:53:30;101213.22;;;6.92;69.71
60852;BME280;48553;50.766;2.900;2023-04-26T03:56:31;101218.69;;;6.92;69.84
60852;BME280;48553;50.766;2.900;2023-04-26T03:59:31;101209.19;;;6.89;69.82
60852;BME280;48553;50.766;2.900;2023-04-26T04:02:32;101210.00;;;6.90;69.90
60852;BME280;48553;50.766;2.900;2023-04-26T04:05:32;101216.34;;;6.85;69.78
60852;BME280;48553;50.766;2.900;2023-04-26T04:08:33;101212.53;;;6.86;69.77
60852;BME280;48553;50.766;2.900;2023-04-26T04:11:33;101216.34;;;6.85;69.93
60852;BME280;48553;50.766;2.900;2023-04-26T04:14:34;101205.44;;;6.85;69.86
60852;BME280;48553;50.766;2.900;2023-04-26T04:17:35;101210.09;;;6.85;70.00
60852;BME280;48553;50.766;2.900;2023-04-26T04:20:35;101201.41;;;6.83;70.35
60852;BME280;48553;50.766;2.900;2023-04-26T04:23:35;101200.31;;;6.84;70.16
60852;BME280;48553;50.766;2.900;2023-04-26T04:26:36;101202.81;;;6.80;70.58
60852;BME280;48553;50.766;2.900;2023-04-26T04:29:36;101212.91;;;6.80;70.62
60852;BME280;48553;50.766;2.900;2023-04-26T04:32:37;101205.53;;;6.80;70.50
60852;BME280;48553;50.766;2.900;2023-04-26T04:35:43;101205.03;;;6.78;70.56
60852;BME280;48553;50.766;2.900;2023-04-26T04:38:44;101200.69;;;6.77;70.55
60852;BME280;48553;50.766;2.900;2023-04-26T04:41:44;101213.28;;;6.73;70.71
60852;BME280;48553;50.766;2.900;2023-04-26T04:44:47;101207.84;;;6.73;70.74
60852;BME280;48553;50.766;2.900;2023-04-26T04:47:49;101219.53;;;6.74;70.65
60852;BME280;48553;50.766;2.900;2023-04-26T04:50:50;101223.16;;;6.69;70.81
60852;BME280;48553;50.766;2.900;2023-04-26T04:53:51;101222.88;;;6.71;70.51
60852;BME280;48553;50.766;2.900;2023-04-26T04:56:51;101229.13;;;6.71;70.94
60852;BME280;48553;50.766;2.900;2023-04-26T04:59:51;101241.13;;;6.70;70.55
60852;BME280;48553;50.766;2.900;2023-04-26T05:02:52;101240.91;;;6.66;70.80
60852;BME280;48553;50.766;2.900;2023-04-26T05:05:52;101244.75;;;6.65;71.08
60852;BME280;48553;50.766;2.900;2023-04-26T05:08:54;101249.59;;;6.68;70.79
60852;BME280;48553;50.766;2.900;2023-04-26T05:11:55;101245.84;;;6.64;70.75
60852;BME280;48553;50.766;2.900;2023-04-26T05:14:55;101233.84;;;6.65;71.07
60852;BME280;48553;50.766;2.900;2023-04-26T05:17:56;101237.66;;;6.64;71.10
60852;BME280;48553;50.766;2.900;2023-04-26T05:20:58;101231.41;;;6.64;71.20
60852;BME280;48553;50.766;2.900;2023-04-26T05:23:58;101238.19;;;6.66;71.33
60852;BME280;48553;50.766;2.900;2023-04-26T05:26:59;101237.94;;;6.63;71.84
60852;BME280;48553;50.766;2.900;2023-04-26T05:30:00;101243.63;;;6.66;71.79
60852;BME280;48553;50.766;2.900;2023-04-26T05:33:00;101237.91;;;6.68;71.99
60852;BME280;48553;50.766;2.900;2023-04-26T05:36:01;101237.06;;;6.67;72.13
60852;BME280;48553;50.766;2.900;2023-04-26T05:39:01;101229.41;;;6.69;72.21
60852;BME280;48553;50.766;2.900;2023-04-26T05:42:02;101235.69;;;6.70;72.56
60852;BME280;48553;50.766;2.900;2023-04-26T05:45:03;101243.84;;;6.70;72.42
60852;BME280;48553;50.766;2.900;2023-04-26T05:48:04;101242.72;;;6.71;72.78
60852;BME280;48553;50.766;2.900;2023-04-26T05:51:04;101232.06;;;6.75;72.40
60852;BME280;48553;50.766;2.900;2023-04-26T05:54:04;101231.03;;;6.71;73.07
60852;BME280;48553;50.766;2.900;2023-04-26T05:57:05;101233.97;;;6.74;72.78
60852;BME280;48553;50.766;2.900;2023-04-26T06:00:06;101233.38;;;6.77;73.06
60852;BME280;48553;50.766;2.900;2023-04-26T06:03:08;101244.19;;;6.82;72.79
60852;BME280;48553;50.766;2.900;2023-04-26T06:06:09;101240.94;;;6.80;72.95
60852;BME280;48553;50.766;2.900;2023-04-26T06:09:10;101258.09;;;6.81;73.10
60852;BME280;48553;50.766;2.900;2023-04-26T06:12:10;101251.47;;;6.87;72.97
60852;BME280;48553;50.766;2.900;2023-04-26T06:15:11;101253.91;;;6.88;72.93
60852;BME280;48553;50.766;2.900;2023-04-26T06:18:11;101247.03;;;6.91;73.04
60852;BME280;48553;50.766;2.900;2023-04-26T06:21:12;101259.53;;;6.92;73.32
60852;BME280;48553;50.766;2.900;2023-04-26T06:24:12;101261.19;;;6.93;73.16
60852;BME280;48553;50.766;2.900;2023-04-26T06:27:12;101257.84;;;6.96;73.31
60852;BME280;48553;50.766;2.900;2023-04-26T06:30:13;101263.00;;;6.98;73.31
60852;BME280;48553;50.766;2.900;2023-04-26T06:33:13;101257.25;;;6.99;73.29
60852;BME280;48553;50.766;2.900;2023-04-26T06:36:14;101257.75;;;7.01;73.42
60852;BME280;48553;50.766;2.900;2023-04-26T06:39:14;101266.44;;;7.03;73.37
60852;BME280;48553;50.766;2.900;2023-04-26T06:42:16;101259.06;;;7.04;73.34
60852;BME280;48553;50.766;2.900;2023-04-26T06:45:17;101258.16;;;7.08;73.43
60852;BME280;48553;50.766;2.900;2023-04-26T06:48:18;101257.59;;;7.11;73.44
60852;BME280;48553;50.766;2.900;2023-04-26T06:51:18;101257.78;;;7.15;73.38
60852;BME280;48553;50.766;2.900;2023-04-26T06:54:19;101274.66;;;7.17;73.48
60852;BME280;48553;50.766;2.900;2023-04-26T06:57:19;101264.56;;;7.18;73.59
60852;BME280;48553;50.766;2.900;2023-04-26T07:00:20;101265.88;;;7.20;73.85
60852;BME280;48553;50.766;2.900;2023-04-26T07:03:21;101275.56;;;7.26;73.69
60852;BME280;48553;50.766;2.900;2023-04-26T07:06:22;101267.09;;;7.28;73.71
60852;BME280;48553;50.766;2.900;2023-04-26T07:09:23;101264.28;;;7.33;73.64
60852;BME280;48553;50.766;2.900;2023-04-26T07:12:24;101265.91;;;7.34;73.49
60852;BME280;48553;50.766;2.900;2023-04-26T07:15:24;101262.56;;;7.37;73.60
60852;BME280;48553;50.766;2.900;2023-04-26T07:18:24;101266.59;;;7.40;73.47
60852;BME280;48553;50.766;2.900;2023-04-26T07:21:25;101275.81;;;7.44;73.84
60852;BME280;48553;50.766;2.900;2023-04-26T07:24:26;101276.03;;;7.47;73.39
60852;BME280;48553;50.766;2.900;2023-04-26T07:27:26;101268.53;;;7.53;73.41
60852;BME280;48553;50.766;2.900;2023-04-26T07:30:27;101274.63;;;7.64;72.96
60852;BME280;48553;50.766;2.900;2023-04-26T07:33:27;101266.31;;;7.69;72.93
60852;BME280;48553;50.766;2.900;2023-04-26T07:36:28;101264.22;;;7.80;72.70
60852;BME280;48553;50.766;2.900;2023-04-26T07:39:28;101276.03;;;7.89;72.65
60852;BME280;48553;50.766;2.900;2023-04-26T07:42:29;101278.34;;;7.95;72.79
60852;BME280;48553;50.766;2.900;2023-04-26T07:45:31;101277.94;;;8.02;72.94
60852;BME280;48553;50.766;2.900;2023-04-26T07:48:31;101285.91;;;8.12;72.42
60852;BME280;48553;50.766;2.900;2023-04-26T07:51:34;101284.69;;;8.19;72.38
60852;BME280;48553;50.766;2.900;2023-04-26T07:54:35;101285.16;;;8.34;72.03
60852;BME280;48553;50.766;2.900;2023-04-26T07:57:36;101292.03;;;8.46;72.14
60852;BME280;48553;50.766;2.900;2023-04-26T08:00:36;101288.94;;;8.61;71.97
60852;BME280;48553;50.766;2.900;2023-04-26T08:03:38;101291.63;;;8.75;71.56
60852;BME280;48553;50.766;2.900;2023-04-26T08:06:38;101285.47;;;8.92;72.10
60852;BME280;48553;50.766;2.900;2023-04-26T08:09:38;101281.88;;;9.05;72.90
60852;BME280;48553;50.766;2.900;2023-04-26T08:12:39;101279.03;;;9.19;72.58
60852;BME280;48553;50.766;2.900;2023-04-26T08:15:40;101269.16;;;9.32;72.33
60852;BME280;48553;50.766;2.900;2023-04-26T08:18:40;101273.88;;;9.49;72.02
60852;BME280;48553;50.766;2.900;2023-04-26T08:21:40;101275.41;;;9.64;72.17
60852;BME280;48553;50.766;2.900;2023-04-26T08:24:46;101278.19;;;9.81;72.08
60852;BME280;48553;50.766;2.900;2023-04-26T08:27:48;101276.94;;;9.96;72.10
60852;BME280;48553;50.766;2.900;2023-04-26T08:30:49;101267.31;;;10.07;72.28
60852;BME280;48553;50.766;2.900;2023-04-26T08:33:50;101268.94;;;10.17;72.30
60852;BME280;48553;50.766;2.900;2023-04-26T08:36:50;101274.63;;;10.29;72.09
60852;BME280;48553;50.766;2.900;2023-04-26T08:39:50;101259.50;;;10.40;72.19
60852;BME280;48553;50.766;2.900;2023-04-26T08:42:51;101254.16;;;10.53;71.77
60852;BME280;48553;50.766;2.900;2023-04-26T08:45:53;101254.28;;;10.65;71.96
60852;BME280;48553;50.766;2.900;2023-04-26T08:49:04;101243.63;;;10.81;72.38
60852;BME280;48553;50.766;2.900;2023-04-26T08:52:13;101236.16;;;11.07;70.51
60852;BME280;48553;50.766;2.900;2023-04-26T08:55:15;101247.44;;;11.15;70.20
60852;BME280;48553;50.766;2.900;2023-04-26T08:58:17;101246.44;;;11.28;69.93
60852;BME280;48553;50.766;2.900;2023-04-26T09:01:18;101237.22;;;11.33;71.26
60852;BME280;48553;50.766;2.900;2023-04-26T09:04:20;101249.59;;;11.47;70.30
60852;BME280;48553;50.766;2.900;2023-04-26T09:07:30;101250.59;;;11.73;70.18
60852;BME280;48553;50.766;2.900;2023-04-26T09:10:31;101243.72;;;11.96;67.09
60852;BME280;48553;50.766;2.900;2023-04-26T09:13:32;101241.44;;;11.98;67.87
60852;BME280;48553;50.766;2.900;2023-04-26T09:16:35;101231.97;;;12.38;66.33
60852;BME280;48553;50.766;2.900;2023-04-26T09:19:39;101230.59;;;12.44;67.21
60852;BME280;48553;50.766;2.900;2023-04-26T09:22:41;101240.84;;;12.56;67.84
60852;BME280;48553;50.766;2.900;2023-04-26T09:25:42;101241.16;;;12.75;66.61
60852;BME280;48553;50.766;2.900;2023-04-26T09:28:42;101249.31;;;12.84;66.13
60852;BME280;48553;50.766;2.900;2023-04-26T09:31:47;101254.38;;;12.94;64.91
60852;BME280;48553;50.766;2.900;2023-04-26T09:34:48;101244.91;;;13.04;66.39
60852;BME280;48553;50.766;2.900;2023-04-26T09:38:05;101246.78;;;13.24;65.45
60852;BME280;48553;50.766;2.900;2023-04-26T09:41:06;101239.25;;;13.46;64.27
60852;BME280;48553;50.766;2.900;2023-04-26T09:44:19;101247.75;;;13.41;65.59
60852;BME280;48553;50.766;2.900;2023-04-26T09:47:20;101238.47;;;13.70;64.86
60852;BME280;48553;50.766;2.900;2023-04-26T09:50:27;101233.28;;;13.81;63.53
60852;BME280;48553;50.766;2.900;2023-04-26T09:53:48;101230.31;;;13.86;64.23
60852;BME280;48553;50.766;2.900;2023-04-26T09:56:58;101240.75;;;13.80;64.17
60852;BME280;48553;50.766;2.900;2023-04-26T10:00:05;101232.03;;;13.78;63.98
60852;BME280;48553;50.766;2.900;2023-04-26T10:03:08;101234.16;;;14.09;63.91
60852;BME280;48553;50.766;2.900;2023-04-26T10:06:09;101232.66;;;14.24;63.88
60852;BME280;48553;50.766;2.900;2023-04-26T10:09:09;101226.84;;;14.41;62.95
60852;BME280;48553;50.766;2.900;2023-04-26T10:12:13;101216.06;;;14.36;62.81
60852;BME280;48553;50.766;2.900;2023-04-26T10:15:14;101213.13;;;14.57;62.29
60852;BME280;48553;50.766;2.900;2023-04-26T10:18:14;101213.31;;;14.65;63.27
60852;BME280;48553;50.766;2.900;2023-04-26T10:21:21;101212.47;;;14.76;62.59
60852;BME280;48553;50.766;2.900;2023-04-26T10:24:24;101207.84;;;14.80;62.24
60852;BME280;48553;50.766;2.900;2023-04-26T10:30:57;101208.59;;;15.09;63.16
60852;BME280;48553;50.766;2.900;2023-04-26T10:34:18;101210.28;;;15.30;63.07
60852;BME280;48553;50.766;2.900;2023-04-26T10:37:19;101214.91;;;15.25;63.15
60852;BME280;48553;50.766;2.900;2023-04-26T10:40:24;101203.63;;;15.47;62.96
60852;BME280;48553;50.766;2.900;2023-04-26T10:43:28;101200.09;;;15.65;61.80
60852;BME280;48553;50.766;2.900;2023-04-26T10:46:36;101200.19;;;15.69;61.26
60852;BME280;48553;50.766;2.900;2023-04-26T10:49:45;101189.09;;;15.50;61.71
60852;BME280;48553;50.766;2.900;2023-04-26T10:56:02;101185.41;;;15.77;61.23
60852;BME280;48553;50.766;2.900;2023-04-26T10:59:07;101189.66;;;15.91;61.01
60852;BME280;48553;50.766;2.900;2023-04-26T11:02:09;101182.25;;;15.95;61.65
60852;BME280;48553;50.766;2.900;2023-04-26T11:05:09;101178.16;;;15.89;61.00
60852;BME280;48553;50.766;2.900;2023-04-26T11:11:15;101179.19;;;16.00;59.54
60852;BME280;48553;50.766;2.900;2023-04-26T11:14:16;101180.03;;;15.84;59.09
60852;BME280;48553;50.766;2.900;2023-04-26T11:17:18;101178.75;;;15.98;58.02
60852;BME280;48553;50.766;2.900;2023-04-26T11:20:19;101173.75;;;16.03;58.37
60852;BME280;48553;50.766;2.900;2023-04-26T11:23:21;101162.31;;;16.24;57.93
60852;BME280;48553;50.766;2.900;2023-04-26T11:26:22;101168.22;;;16.42;57.58
60852;BME280;48553;50.766;2.900;2023-04-26T11:29:24;101161.78;;;16.38;57.35
60852;BME280;48553;50.766;2.900;2023-04-26T11:32:25;101169.56;;;16.52;56.99
60852;BME280;48553;50.766;2.900;2023-04-26T11:35:26;101170.56;;;16.63;56.08
60852;BME280;48553;50.766;2.900;2023-04-26T11:38:28;101166.69;;;16.68;54.92
60852;BME280;48553;50.766;2.900;2023-04-26T11:41:29;101168.81;;;16.75;55.92
60852;BME280;48553;50.766;2.900;2023-04-26T11:44:29;101167.94;;;16.90;54.51
60852;BME280;48553;50.766;2.900;2023-04-26T11:47:30;101164.91;;;16.99;55.14
60852;BME280;48553;50.766;2.900;2023-04-26T11:50:32;101168.91;;;17.01;55.83
60852;BME280;48553;50.766;2.900;2023-04-26T11:53:42;101170.56;;;17.06;56.19
60852;BME280;48553;50.766;2.900;2023-04-26T11:56:43;101174.00;;;17.22;55.83
60852;BME280;48553;50.766;2.900;2023-04-26T11:59:44;101172.56;;;17.32;55.57
60852;BME280;48553;50.766;2.900;2023-04-26T12:02:46;101175.88;;;17.41;55.10
60852;BME280;48553;50.766;2.900;2023-04-26T12:05:53;101175.19;;;17.48;54.53
60852;BME280;48553;50.766;2.900;2023-04-26T12:08:55;101168.53;;;17.52;55.09
60852;BME280;48553;50.766;2.900;2023-04-26T12:15:00;101156.94;;;17.73;55.15
60852;BME280;48553;50.766;2.900;2023-04-26T12:18:08;101161.28;;;17.71;55.66
60852;BME280;48553;50.766;2.900;2023-04-26T12:21:09;101150.66;;;17.77;56.07
60852;BME280;48553;50.766;2.900;2023-04-26T12:24:27;101155.72;;;17.71;55.96
60852;BME280;48553;50.766;2.900;2023-04-26T12:27:33;101149.66;;;17.88;54.69
60852;BME280;48553;50.766;2.900;2023-04-26T12:30:34;101155.72;;;17.98;55.00
60852;BME280;48553;50.766;2.900;2023-04-26T12:33:34;101153.03;;;18.05;54.77
60852;BME280;48553;50.766;2.900;2023-04-26T12:36:35;101143.13;;;18.04;55.30
60852;BME280;48553;50.766;2.900;2023-04-26T12:39:35;101153.00;;;18.01;55.16
60852;BME280;48553;50.766;2.900;2023-04-26T12:42:36;101149.66;;;17.88;56.25
60852;BME280;48553;50.766;2.900;2023-04-26T12:45:36;101167.31;;;18.03;55.02
60852;BME280;48553;50.766;2.900;2023-04-26T12:48:36;101156.75;;;18.16;54.92
60852;BME280;48553;50.766;2.900;2023-04-26T12:51:37;101153.19;;;18.15;54.39
60852;BME280;48553;50.766;2.900;2023-04-26T12:54:37;101158.81;;;18.23;53.51
60852;BME280;48553;50.766;2.900;2023-04-26T12:57:39;101171.47;;;18.20;54.14
60852;BME280;48553;50.766;2.900;2023-04-26T13:00:41;101165.19;;;18.27;53.77
60852;BME280;48553;50.766;2.900;2023-04-26T13:03:41;101167.63;;;18.32;53.87
60852;BME280;48553;50.766;2.900;2023-04-26T13:06:42;101160.59;;;18.42;54.04
60852;BME280;48553;50.766;2.900;2023-04-26T13:09:42;101159.50;;;18.46;53.71
60852;BME280;48553;50.766;2.900;2023-04-26T13:12:42;101155.06;;;18.42;52.79
60852;BME280;48553;50.766;2.900;2023-04-26T13:15:43;101160.44;;;18.27;54.29
60852;BME280;48553;50.766;2.900;2023-04-26T13:18:44;101148.97;;;18.29;54.14
60852;BME280;48553;50.766;2.900;2023-04-26T13:21:45;101155.66;;;18.24;54.53
60852;BME280;48553;50.766;2.900;2023-04-26T13:24:46;101157.94;;;18.15;55.05
60852;BME280;48553;50.766;2.900;2023-04-26T13:27:46;101159.16;;;18.18;53.40
60852;BME280;48553;50.766;2.900;2023-04-26T13:30:46;101149.22;;;18.16;54.01
60852;BME280;48553;50.766;2.900;2023-04-26T13:33:48;101144.44;;;18.13;54.36
60852;BME280;48553;50.766;2.900;2023-04-26T13:36:49;101150.25;;;18.05;55.46
60852;BME280;48553;50.766;2.900;2023-04-26T13:39:49;101145.56;;;18.09;54.01
60852;BME280;48553;50.766;2.900;2023-04-26T13:42:50;101142.13;;;18.19;54.24
60852;BME280;48553;50.766;2.900;2023-04-26T13:45:50;101137.19;;;18.05;55.57
60852;BME280;48553;50.766;2.900;2023-04-26T13:48:51;101136.59;;;18.19;53.58
60852;BME280;48553;50.766;2.900;2023-04-26T13:51:54;101132.25;;;18.22;54.08
60852;BME280;48553;50.766;2.900;2023-04-26T13:54:54;101132.53;;;18.13;54.67
60852;BME280;48553;50.766;2.900;2023-04-26T13:57:55;101129.50;;;18.25;53.53
60852;BME280;48553;50.766;2.900;2023-04-26T14:00:56;101129.19;;;18.30;53.90
60852;BME280;48553;50.766;2.900;2023-04-26T14:03:56;101133.81;;;18.19;54.24
60852;BME280;48553;50.766;2.900;2023-04-26T14:06:57;101135.97;;;18.36;52.76
60852;BME280;48553;50.766;2.900;2023-04-26T14:09:57;101126.09;;;18.39;52.98
60852;BME280;48553;50.766;2.900;2023-04-26T14:12:58;101125.63;;;18.33;53.67
60852;BME280;48553;50.766;2.900;2023-04-26T14:15:59;101118.75;;;18.20;54.67
60852;BME280;48553;50.766;2.900;2023-04-26T14:19:00;101119.84;;;18.12;55.56
60852;BME280;48553;50.766;2.900;2023-04-26T14:22:01;101120.31;;;18.18;54.76
60852;BME280;48553;50.766;2.900;2023-04-26T14:25:01;101108.72;;;18.08;55.24
60852;BME280;48553;50.766;2.900;2023-04-26T14:28:02;101111.44;;;18.05;55.01
60852;BME280;48553;50.766;2.900;2023-04-26T14:31:03;101118.50;;;17.99;55.57
60852;BME280;48553;50.766;2.900;2023-04-26T14:34:03;101113.78;;;18.03;54.67
60852;BME280;48553;50.766;2.900;2023-04-26T14:37:06;101110.97;;;17.99;54.90
60852;BME280;48553;50.766;2.900;2023-04-26T14:40:07;101115.41;;;18.07;53.52
60852;BME280;48553;50.766;2.900;2023-04-26T14:43:08;101109.38;;;17.98;55.56
60852;BME280;48553;50.766;2.900;2023-04-26T14:46:09;101112.34;;;18.12;53.60
60852;BME280;48553;50.766;2.900;2023-04-26T14:49:09;101110.28;;;18.09;53.05
60852;BME280;48553;50.766;2.900;2023-04-26T14:52:10;101101.09;;;18.02;54.07
60852;BME280;48553;50.766;2.900;2023-04-26T14:55:16;101096.53;;;17.83;55.57
60852;BME280;48553;50.766;2.900;2023-04-26T14:58:17;101096.72;;;17.70;55.49
60852;BME280;48553;50.766;2.900;2023-04-26T15:01:18;101097.47;;;17.67;56.84
60852;BME280;48553;50.766;2.900;2023-04-26T15:04:18;101098.53;;;17.59;56.77
60852;BME280;48553;50.766;2.900;2023-04-26T15:07:19;101102.06;;;17.56;56.96
60852;BME280;48553;50.766;2.900;2023-04-26T15:10:19;101096.97;;;17.58;56.54
60852;BME280;48553;50.766;2.900;2023-04-26T15:13:20;101095.41;;;17.61;54.04
60852;BME280;48553;50.766;2.900;2023-04-26T15:16:20;101096.44;;;17.49;55.87
60852;BME280;48553;50.766;2.900;2023-04-26T15:19:20;101093.88;;;17.37;55.72
60852;BME280;48553;50.766;2.900;2023-04-26T15:22:21;101083.91;;;17.32;56.07
60852;BME280;48553;50.766;2.900;2023-04-26T15:25:21;101073.22;;;17.30;56.49
60852;BME280;48553;50.766;2.900;2023-04-26T15:28:22;101078.34;;;17.28;55.82
60852;BME280;48553;50.766;2.900;2023-04-26T15:31:22;101072.72;;;17.25;56.11
60852;BME280;48553;50.766;2.900;2023-04-26T15:34:23;101073.50;;;17.22;56.17
60852;BME280;48553;50.766;2.900;2023-04-26T15:37:24;101077.38;;;17.17;56.04
60852;BME280;48553;50.766;2.900;2023-04-26T15:40:25;101086.84;;;17.16;55.82
60852;BME280;48553;50.766;2.900;2023-04-26T15:43:26;101080.50;;;17.16;55.19
60852;BME280;48553;50.766;2.900;2023-04-26T15:46:27;101081.69;;;17.15;55.88
60852;BME280;48553;50.766;2.900;2023-04-26T15:49:27;101079.47;;;17.01;56.27
60852;BME280;48553;50.766;2.900;2023-04-26T15:52:28;101084.44;;;16.88;56.06
60852;BME280;48553;50.766;2.900;2023-04-26T15:55:31;101080.81;;;16.84;56.13
60852;BME280;48553;50.766;2.900;2023-04-26T15:58:31;101073.69;;;16.83;55.67
60852;BME280;48553;50.766;2.900;2023-04-26T16:01:32;101074.09;;;16.85;55.76
60852;BME280;48553;50.766;2.900;2023-04-26T16:04:32;101070.75;;;16.76;56.06
60852;BME280;48553;50.766;2.900;2023-04-26T16:07:32;101074.25;;;16.73;55.67